Americas Spirit — C6FW2 — position and weather

sailwx.info

Track history (hours):
 
Tides and Currents Weather Stations Pressure Air Temp Water Temp Dewpoint Dewpoint Depression Visibility Wind Speed Wind Dir Waves Ship Positions

Americas Spirit

Last reported at 2018-Jun-01 22:05 UTC. Time now 2018-Jul-21 05:54 UTC.
Position N 01°21' E 104°24'.
Warning: this ship's position is 49 days out of date.

Length 256 m; draft 8.4 m.

Type: Tanker. MMSI: 311497000.

Date/timePositionNaut miles runAvg speedWind from/ knotsBaromVisibWave heightAir tempDewpointWater temp
2018-Jun-01 22:05N 01°21' E 104°24'214.3
2018-Jun-01 21:59N 01°20' E 104°22'715.3
2018-Jun-01 21:30N 01°17' E 104°16'613.0
2018-Jun-01 21:00N 01°17' E 104°09'4 7.0
2018-Jun-01 20:29N 01°19' E 104°06'4 8.3
2018-Jun-01 19:59N 01°21' E 104°03'510.5
2018-Jun-01 19:30N 01°26' E 104°00'1 0.8
2018-Jun-01 18:36N 01°26' E 104°01'0 0.0
2018-Jun-01 18:30N 01°26' E 104°01'0 0.0
2018-Jun-01 18:00N 01°26' E 104°01'0 0.0
2018-Jun-01 17:15N 01°26' E 104°01'0 0.0
2018-Jun-01 16:55N 01°26' E 104°01'0 0.0
2018-Jun-01 16:03N 01°26' E 104°01'0 0.0
2018-Jun-01 15:45N 01°26' E 104°01'0 0.0
2018-Jun-01 15:27N 01°26' E 104°01'0 0.0
2018-Jun-01 14:39N 01°26' E 104°01'0 0.0
2018-Jun-01 14:21N 01°26' E 104°01'0 0.0
2018-Jun-01 13:57N 01°26' E 104°01'0 0.0
2018-Jun-01 13:27N 01°26' E 104°01'0 0.0
2018-Jun-01 11:54N 01°26' E 104°01'0 0.0
2018-Jun-01 09:54N 01°26' E 104°01'0 0.0
2018-Jun-01 09:27N 01°26' E 104°01'0 0.0
2018-Jun-01 08:39N 01°26' E 104°01'0 0.0
2018-Jun-01 08:09N 01°26' E 104°01'0 0.0
2018-Jun-01 07:42N 01°26' E 104°01'0 0.0
2018-Jun-01 07:18N 01°26' E 104°01'0 0.0
2018-Jun-01 04:51N 01°26' E 104°01'0 0.0
2018-Jun-01 04:12N 01°26' E 104°01'0 0.0
2018-Jun-01 01:39N 01°26' E 104°01'0 0.0
2018-Jun-01 00:06N 01°26' E 104°01'0 0.0
2018-Jun-01 00:00N 01°26' E 104°01'0 0.0
2018-May-31 23:22N 01°26' E 104°01'0 0.0
2018-May-31 22:18N 01°26' E 104°01'0 0.0
2018-May-31 21:49N 01°26' E 104°01'0 0.0
2018-May-31 19:51N 01°26' E 104°01'0 0.0
2018-May-31 19:06N 01°26' E 104°01'0 0.0
2018-May-31 18:36N 01°26' E 104°01'0 0.0
2018-May-31 18:23N 01°26' E 104°01'0 0.7
2018-May-31 18:00N 01°26' E 104°01'3 5.0
2018-May-31 17:30N 01°23' E 104°01'5 9.3
2018-May-31 17:00N 01°20' E 104°04'3 1.6
2018-May-31 15:18N 01°19' E 104°07'0 0.1
2018-May-31 14:51N 01°19' E 104°07'0 0.0
2018-May-31 13:00N 01°19' E 104°07'0 0.0
2018-May-31 11:30N 01°19' E 104°07'0 0.1
2018-May-31 10:42N 01°19' E 104°07'0 0.0
2018-May-31 09:57N 01°19' E 104°07'0 0.0
2018-May-31 08:48N 01°19' E 104°07'0 0.0
2018-May-31 08:27N 01°19' E 104°07'0 0.1
2018-May-31 06:27N 01°19' E 104°07'0 0.0
2018-May-31 05:39N 01°19' E 104°07'0 0.0
2018-May-31 05:15N 01°19' E 104°07'0 0.0
2018-May-31 02:48N 01°19' E 104°07'0 0.3
2018-May-31 02:21N 01°19' E 104°07'0 0.0
2018-May-31 02:00N 01°19' E 104°07'0 0.1
2018-May-31 01:24N 01°19' E 104°07'0 0.1
2018-May-30 23:24N 01°19' E 104°07'0 0.1
2018-May-30 22:48N 01°19' E 104°07'0 0.0
2018-May-30 22:27N 01°19' E 104°07'0 0.0
2018-May-30 20:58N 01°19' E 104°07'0 0.0
2018-May-30 20:15N 01°19' E 104°07'0 0.1
2018-May-30 19:12N 01°19' E 104°07'0 0.0
2018-May-30 18:57N 01°19' E 104°07'0 0.0
2018-May-30 17:00N 01°19' E 104°07'0 0.2
2018-May-30 15:27N 01°19' E 104°07'0 0.0
2018-May-30 14:51N 01°19' E 104°07'0 0.1
2018-May-30 14:24N 01°19' E 104°07'0 0.0
2018-May-30 13:39N 01°19' E 104°07'0 0.0
2018-May-30 13:21N 01°19' E 104°07'0 0.0
2018-May-30 12:48N 01°19' E 104°07'0 0.0
2018-May-30 12:24N 01°19' E 104°07'0 0.1
2018-May-30 11:51N 01°19' E 104°07'0 0.0
2018-May-30 11:03N 01°19' E 104°07'0 0.1
2018-May-30 09:57N 01°19' E 104°07'0 0.2
2018-May-30 09:24N 01°19' E 104°07'0 0.1
2018-May-30 08:51N 01°19' E 104°07'0 0.0
2018-May-30 08:27N 01°19' E 104°07'0 0.1
2018-May-30 08:00N 01°19' E 104°07'0 0.1
2018-May-30 05:51N 01°19' E 104°07'0 0.1
2018-May-30 05:09N 01°19' E 104°07'0 0.1
2018-May-30 04:57N 01°19' E 104°07'0 0.0
2018-May-30 04:30N 01°19' E 104°07'0 0.0
2018-May-30 03:27N 01°19' E 104°07'0 0.0
2018-May-30 02:09N 01°19' E 104°07'0 0.0
2018-May-30 01:36N 01°19' E 104°07'0 0.0
2018-May-30 01:27N 01°19' E 104°07'0 0.1
2018-May-29 23:57N 01°19' E 104°07'0 0.3
2018-May-29 23:30N 01°19' E 104°07'0 0.1
2018-May-29 22:48N 01°19' E 104°07'0 0.0
2018-May-29 22:30N 01°19' E 104°07'0 0.0
2018-May-29 20:42N 01°19' E 104°07'0 0.1
2018-May-29 20:12N 01°19' E 104°07'0 0.0
2018-May-29 19:48N 01°19' E 104°07'0 0.0
2018-May-29 19:15N 01°19' E 104°07'0 0.1
2018-May-29 18:57N 01°19' E 104°07'0 0.0
2018-May-29 17:51N 01°19' E 104°07'0 0.0
2018-May-29 16:39N 01°19' E 104°07'0 0.0
2018-May-29 16:24N 01°19' E 104°07'0 0.4
2018-May-29 15:54N 01°19' E 104°07'0 0.3
2018-May-29 15:27N 01°19' E 104°07'0 0.0
2018-May-29 14:51N 01°19' E 104°07'0 0.0
2018-May-29 14:21N 01°19' E 104°07'0 0.0
2018-May-29 13:57N 01°19' E 104°07'0 0.1
2018-May-29 12:45N 01°19' E 104°07'0 0.0
2018-May-29 12:30N 01°19' E 104°07'0 0.0
2018-May-29 12:00N 01°19' E 104°07'0 0.0
2018-May-29 11:30N 01°19' E 104°07'0 0.1
2018-May-29 09:36N 01°19' E 104°07'0 0.2
2018-May-29 09:06N 01°19' E 104°07'0 0.0
2018-May-29 08:51N 01°19' E 104°07'0 0.0
2018-May-29 08:27N 01°19' E 104°07'0 0.2
2018-May-29 07:42N 01°19' E 104°07'0 0.4
2018-May-29 07:24N 01°19' E 104°07'0 0.1
2018-May-29 06:39N 01°19' E 104°07'0 0.0
2018-May-29 06:21N 01°19' E 104°07'0 0.1
2018-May-29 05:51N 01°19' E 104°07'0 0.1
2018-May-29 04:15N 01°19' E 104°07'0 0.1
2018-May-29 04:00N 01°19' E 104°07'0 0.0
2018-May-29 03:12N 01°19' E 104°07'0 0.0
2018-May-29 03:00N 01°19' E 104°07'0 0.0
2018-May-29 02:24N 01°19' E 104°07'0 0.0
2018-May-29 01:36N 01°19' E 104°07'0 0.1
2018-May-29 01:12N 01°19' E 104°07'0 0.0
2018-May-29 00:54N 01°19' E 104°07'0 0.0
2018-May-29 00:21N 01°19' E 104°07'0 0.1
2018-May-28 22:54N 01°19' E 104°07'0 0.1
2018-May-28 22:18N 01°19' E 104°07'0 0.2
2018-May-28 22:00N 01°19' E 104°07'0 0.0
2018-May-28 21:27N 01°19' E 104°07'0 0.0
2018-May-28 20:57N 01°19' E 104°07'0 0.0
2018-May-28 20:27N 01°19' E 104°07'0 0.1
2018-May-28 19:09N 01°19' E 104°07'0 0.1
2018-May-28 18:48N 01°19' E 104°07'0 0.0
2018-May-28 18:27N 01°19' E 104°07'0 0.1
2018-May-28 17:27N 01°19' E 104°07'0 0.0
2018-May-28 16:51N 01°19' E 104°07'0 0.2
2018-May-28 16:30N 01°19' E 104°07'0 0.3
2018-May-28 16:00N 01°19' E 104°07'0 0.0
2018-May-28 15:24N 01°19' E 104°07'0 0.0
2018-May-28 13:57N 01°19' E 104°07'0 0.0
2018-May-28 13:21N 01°19' E 104°07'0 0.0
2018-May-28 13:00N 01°19' E 104°07'0 0.1
2018-May-28 12:15N 01°19' E 104°07'0 0.0
2018-May-28 11:48N 01°19' E 104°07'0 0.2
2018-May-28 11:27N 01°19' E 104°07'0 0.0
2018-May-28 11:00N 01°19' E 104°07'0 0.1
2018-May-28 10:18N 01°19' E 104°07'0 0.1
2018-May-28 08:12N 01°19' E 104°07'0 0.0
2018-May-28 07:51N 01°19' E 104°07'0 0.1
2018-May-28 05:12N 01°19' E 104°07'0 0.0
2018-May-28 04:57N 01°19' E 104°07'0 0.0
2018-May-28 03:33N 01°19' E 104°07'0 0.3
2018-May-28 03:21N 01°19' E 104°07'0 0.1
2018-May-28 02:54N 01°19' E 104°07'0 0.1
2018-May-28 01:48N 01°19' E 104°07'0 0.0
2018-May-28 01:30N 01°19' E 104°07'0 0.1
2018-May-27 23:48N 01°19' E 104°07'0 0.1
2018-May-27 23:27N 01°19' E 104°07'0 0.1
2018-May-27 22:45N 01°19' E 104°07'0 0.0
2018-May-27 22:30N 01°19' E 104°07'0 0.2
2018-May-27 21:51N 01°19' E 104°07'0 0.0
2018-May-27 20:18N 01°19' E 104°07'0 0.0
2018-May-27 20:00N 01°19' E 104°07'0 0.0
2018-May-27 19:25N 01°19' E 104°07'0 0.0
2018-May-27 18:33N 01°19' E 104°07'0 0.3
2018-May-27 18:18N 01°19' E 104°07'0 0.0
2018-May-27 17:57N 01°19' E 104°07'0 0.0
2018-May-27 17:30N 01°19' E 104°07'0 0.0
2018-May-27 16:59N 01°19' E 104°07'0 0.0
2018-May-27 16:28N 01°19' E 104°07'0 0.3
2018-May-27 16:00N 01°19' E 104°07'0 0.3
2018-May-27 15:22N 01°19' E 104°07'1 1.9
2018-May-27 15:00N 01°19' E 104°06'2 3.8
2018-May-27 14:30N 01°17' E 104°07'2 3.3
2018-May-27 13:57N 01°16' E 104°09'3 6.2
2018-May-27 13:29N 01°16' E 104°06'2 4.4
2018-May-27 12:59N 01°15' E 104°04'3 6.2
2018-May-27 12:29N 01°14' E 104°01'612.1
2018-May-27 12:00N 01°13' E 103°55'510.3
2018-May-27 11:30N 01°11' E 103°51'5 9.2
2018-May-27 11:00N 01°08' E 103°47'510.1
2018-May-27 10:30N 01°05' E 103°43'510.2
2018-May-27 10:00N 01°03' E 103°38'611.5
2018-May-27 09:30N 01°06' E 103°34'611.7
2018-May-27 09:00N 01°12' E 103°31'1 3.0
2018-May-27 08:30N 01°10' E 103°31'1 1.0
2018-May-27 07:58N 01°11' E 103°32'2 3.7
2018-May-27 07:29N 01°12' E 103°33'2 4.2
2018-May-27 07:00N 01°14' E 103°33'0 0.0
2018-May-27 06:25N 01°14' E 103°33'0 0.0
2018-May-27 05:59N 01°14' E 103°33'0 0.1
2018-May-27 05:20N 01°14' E 103°33'0 0.4
2018-May-27 04:59N 01°14' E 103°33'0 0.2
2018-May-27 04:23N 01°14' E 103°34'0 0.0
2018-May-27 03:56N 01°14' E 103°34'0 0.1
2018-May-27 03:29N 01°14' E 103°34'0 0.2
2018-May-27 02:53N 01°14' E 103°34'0 0.2
2018-May-27 02:23N 01°14' E 103°34'0 0.1
2018-May-27 00:20N 01°14' E 103°33'0 0.2
2018-May-26 23:59N 01°14' E 103°33'0 0.2
2018-May-26 23:17N 01°14' E 103°33'0 0.0
2018-May-26 22:50N 01°14' E 103°33'0 0.0
2018-May-26 22:26N 01°14' E 103°33'0 0.1
2018-May-26 21:58N 01°14' E 103°33'0 0.1
2018-May-26 21:05N 01°14' E 103°33'0 0.1
2018-May-26 20:56N 01°14' E 103°33'0 0.0
2018-May-26 19:53N 01°14' E 103°33'0 0.1
2018-May-26 19:17N 01°14' E 103°33'0 0.1
2018-May-26 18:35N 01°14' E 103°33'0 0.2
2018-May-26 18:26N 01°14' E 103°33'0 0.2
2018-May-26 17:55N 01°14' E 103°33'0 0.1
2018-May-26 17:17N 01°14' E 103°34'0 0.2
2018-May-26 16:59N 01°14' E 103°34'0 0.0
2018-May-26 16:26N 01°14' E 103°34'0 0.0
2018-May-26 15:56N 01°14' E 103°34'0 0.1
2018-May-26 14:34N 01°14' E 103°34'0 0.0
2018-May-26 14:29N 01°14' E 103°34'0 0.1
2018-May-26 13:56N 01°14' E 103°34'0 0.0
2018-May-26 13:23N 01°14' E 103°34'0 0.2
2018-May-26 12:59N 01°14' E 103°34'0 0.1
2018-May-26 11:47N 01°14' E 103°34'0 0.2
2018-May-26 11:29N 01°14' E 103°33'0 0.1
2018-May-26 10:59N 01°14' E 103°33'0 0.1
2018-May-26 10:29N 01°14' E 103°33'0 0.1
2018-May-26 09:44N 01°14' E 103°33'0 0.0
2018-May-26 09:29N 01°14' E 103°33'0 0.1
2018-May-26 08:59N 01°14' E 103°33'0 0.1
2018-May-26 07:59N 01°14' E 103°33'0 0.1
2018-May-26 07:26N 01°14' E 103°33'0 0.1
2018-May-26 06:56N 01°14' E 103°33'0 0.0
2018-May-26 04:32N 01°14' E 103°33'0 0.3
2018-May-26 04:19N 01°14' E 103°33'0 0.2
2018-May-26 03:59N 01°14' E 103°33'0 0.0
2018-May-26 03:23N 01°14' E 103°33'0 0.0
2018-May-26 02:20N 01°14' E 103°33'0 0.0
2018-May-26 01:40N 01°14' E 103°33'0 0.1
2018-May-26 01:11N 01°14' E 103°33'0 0.1
2018-May-26 00:59N 01°14' E 103°33'0 0.0
2018-May-26 00:20N 01°14' E 103°33'0 0.0
2018-May-25 23:59N 01°14' E 103°33'0 0.1
2018-May-25 23:02N 01°14' E 103°33'0 0.0
2018-May-25 22:41N 01°14' E 103°33'0 0.1
2018-May-25 22:11N 01°14' E 103°33'0 0.1
2018-May-25 21:32N 01°14' E 103°33'0 0.0
2018-May-25 21:29N 01°14' E 103°33'0 0.0
2018-May-25 19:35N 01°14' E 103°33'0 0.0
2018-May-25 19:07N 01°14' E 103°33'0 0.1
2018-May-25 18:56N 01°14' E 103°33'0 0.0
2018-May-25 18:05N 01°14' E 103°33'0 0.0
2018-May-25 17:53N 01°14' E 103°33'0 0.0
2018-May-25 17:26N 01°14' E 103°33'0 0.0
2018-May-25 16:56N 01°14' E 103°33'0 0.0
2018-May-25 15:53N 01°14' E 103°33'0 0.0
2018-May-25 15:26N 01°14' E 103°33'0 0.0
2018-May-25 14:53N 01°14' E 103°33'0 0.1
2018-May-25 14:11N 01°14' E 103°33'0 0.1
2018-May-25 13:58N 01°14' E 103°33'0 0.0
2018-May-25 12:32N 01°14' E 103°33'0 0.2
2018-May-25 12:11N 01°14' E 103°33'0 0.1
2018-May-25 11:41N 01°14' E 103°33'0 0.1
2018-May-25 11:29N 01°14' E 103°33'0 0.1
2018-May-25 10:59N 01°14' E 103°33'0 0.0
2018-May-25 09:38N 01°14' E 103°33'0 0.2
2018-May-25 09:26N 01°14' E 103°33'0 0.0
2018-May-25 08:35N 01°14' E 103°33'0 0.0
2018-May-25 08:29N 01°14' E 103°33'0 0.0
2018-May-25 07:56N 01°14' E 103°33'0 0.2
2018-May-25 07:26N 01°14' E 103°33'0 0.1
2018-May-25 06:59N 01°14' E 103°33'0 0.1
2018-May-25 06:30N 01°14' E 103°33'1 2.5
2018-May-25 06:00N 01°15' E 103°32'3 7.0
2018-May-25 05:30N 01°12' E 103°31'2 3.4
2018-May-25 04:59N 01°11' E 103°29'1 2.1
2018-May-25 04:30N 01°11' E 103°28'0 0.8
2018-May-25 03:58N 01°11' E 103°28'1 1.8
2018-May-25 03:28N 01°12' E 103°27'2 4.2
2018-May-25 02:58N 01°13' E 103°25'5 9.9
2018-May-25 02:28N 01°15' E 103°21'611.0
2018-May-25 01:55N 01°19' E 103°16'811.2
2018-May-25 01:14N 01°24' E 103°10'411.7
2018-May-25 00:56N 01°25' E 103°07'711.6
2018-May-25 00:20N 01°29' E 103°01'  
Track history (hours):
 
Tides and Currents Weather Stations Pressure Air Temp Water Temp Dewpoint Dewpoint Depression Visibility Wind Speed Wind Dir Waves Ship Positions

Americas Spirit

Last reported at 2018-Jun-01 22:05 UTC. Time now 2018-Jul-21 05:54 UTC.
Position N 01°21' E 104°24'.
Warning: this ship's position is 49 days out of date.

Length 256 m; draft 8.4 m.

Type: Tanker. MMSI: 311497000.

Date/timePositionNaut miles runAvg speedWind from/ knotsBaromVisibWave heightAir tempDewpointWater temp
2018-Jun-01 22:05N 01°21' E 104°24'214.3
2018-Jun-01 21:59N 01°20' E 104°22'715.3
2018-Jun-01 21:30N 01°17' E 104°16'613.0
2018-Jun-01 21:00N 01°17' E 104°09'4 7.0
2018-Jun-01 20:29N 01°19' E 104°06'4 8.3
2018-Jun-01 19:59N 01°21' E 104°03'510.5
2018-Jun-01 19:30N 01°26' E 104°00'1 0.8
2018-Jun-01 18:36N 01°26' E 104°01'0 0.0
2018-Jun-01 18:30N 01°26' E 104°01'0 0.0
2018-Jun-01 18:00N 01°26' E 104°01'0 0.0
2018-Jun-01 17:15N 01°26' E 104°01'0 0.0
2018-Jun-01 16:55N 01°26' E 104°01'0 0.0
2018-Jun-01 16:03N 01°26' E 104°01'0 0.0
2018-Jun-01 15:45N 01°26' E 104°01'0 0.0
2018-Jun-01 15:27N 01°26' E 104°01'0 0.0
2018-Jun-01 14:39N 01°26' E 104°01'0 0.0
2018-Jun-01 14:21N 01°26' E 104°01'0 0.0
2018-Jun-01 13:57N 01°26' E 104°01'0 0.0
2018-Jun-01 13:27N 01°26' E 104°01'0 0.0
2018-Jun-01 11:54N 01°26' E 104°01'0 0.0
2018-Jun-01 09:54N 01°26' E 104°01'0 0.0
2018-Jun-01 09:27N 01°26' E 104°01'0 0.0
2018-Jun-01 08:39N 01°26' E 104°01'0 0.0
2018-Jun-01 08:09N 01°26' E 104°01'0 0.0
2018-Jun-01 07:42N 01°26' E 104°01'0 0.0
2018-Jun-01 07:18N 01°26' E 104°01'0 0.0
2018-Jun-01 04:51N 01°26' E 104°01'0 0.0
2018-Jun-01 04:12N 01°26' E 104°01'0 0.0
2018-Jun-01 01:39N 01°26' E 104°01'0 0.0
2018-Jun-01 00:06N 01°26' E 104°01'0 0.0
2018-Jun-01 00:00N 01°26' E 104°01'0 0.0
2018-May-31 23:22N 01°26' E 104°01'0 0.0
2018-May-31 22:18N 01°26' E 104°01'0 0.0
2018-May-31 21:49N 01°26' E 104°01'0 0.0
2018-May-31 19:51N 01°26' E 104°01'0 0.0
2018-May-31 19:06N 01°26' E 104°01'0 0.0
2018-May-31 18:36N 01°26' E 104°01'0 0.0
2018-May-31 18:23N 01°26' E 104°01'0 0.7
2018-May-31 18:00N 01°26' E 104°01'3 5.0
2018-May-31 17:30N 01°23' E 104°01'5 9.3
2018-May-31 17:00N 01°20' E 104°04'3 1.6
2018-May-31 15:18N 01°19' E 104°07'0 0.1
2018-May-31 14:51N 01°19' E 104°07'0 0.0
2018-May-31 13:00N 01°19' E 104°07'0 0.0
2018-May-31 11:30N 01°19' E 104°07'0 0.1
2018-May-31 10:42N 01°19' E 104°07'0 0.0
2018-May-31 09:57N 01°19' E 104°07'0 0.0
2018-May-31 08:48N 01°19' E 104°07'0 0.0
2018-May-31 08:27N 01°19' E 104°07'0 0.1
2018-May-31 06:27N 01°19' E 104°07'0 0.0
2018-May-31 05:39N 01°19' E 104°07'0 0.0
2018-May-31 05:15N 01°19' E 104°07'0 0.0
2018-May-31 02:48N 01°19' E 104°07'0 0.3
2018-May-31 02:21N 01°19' E 104°07'0 0.0
2018-May-31 02:00N 01°19' E 104°07'0 0.1
2018-May-31 01:24N 01°19' E 104°07'0 0.1
2018-May-30 23:24N 01°19' E 104°07'0 0.1
2018-May-30 22:48N 01°19' E 104°07'0 0.0
2018-May-30 22:27N 01°19' E 104°07'0 0.0
2018-May-30 20:58N 01°19' E 104°07'0 0.0
2018-May-30 20:15N 01°19' E 104°07'0 0.1
2018-May-30 19:12N 01°19' E 104°07'0 0.0
2018-May-30 18:57N 01°19' E 104°07'0 0.0
2018-May-30 17:00N 01°19' E 104°07'0 0.2
2018-May-30 15:27N 01°19' E 104°07'0 0.0
2018-May-30 14:51N 01°19' E 104°07'0 0.1
2018-May-30 14:24N 01°19' E 104°07'0 0.0
2018-May-30 13:39N 01°19' E 104°07'0 0.0
2018-May-30 13:21N 01°19' E 104°07'0 0.0
2018-May-30 12:48N 01°19' E 104°07'0 0.0
2018-May-30 12:24N 01°19' E 104°07'0 0.1
2018-May-30 11:51N 01°19' E 104°07'0 0.0
2018-May-30 11:03N 01°19' E 104°07'0 0.1
2018-May-30 09:57N 01°19' E 104°07'0 0.2
2018-May-30 09:24N 01°19' E 104°07'0 0.1
2018-May-30 08:51N 01°19' E 104°07'0 0.0
2018-May-30 08:27N 01°19' E 104°07'0 0.1
2018-May-30 08:00N 01°19' E 104°07'0 0.1
2018-May-30 05:51N 01°19' E 104°07'0 0.1
2018-May-30 05:09N 01°19' E 104°07'0 0.1
2018-May-30 04:57N 01°19' E 104°07'0 0.0
2018-May-30 04:30N 01°19' E 104°07'0 0.0
2018-May-30 03:27N 01°19' E 104°07'0 0.0
2018-May-30 02:09N 01°19' E 104°07'0 0.0
2018-May-30 01:36N 01°19' E 104°07'0 0.0
2018-May-30 01:27N 01°19' E 104°07'0 0.1
2018-May-29 23:57N 01°19' E 104°07'0 0.3
2018-May-29 23:30N 01°19' E 104°07'0 0.1
2018-May-29 22:48N 01°19' E 104°07'0 0.0
2018-May-29 22:30N 01°19' E 104°07'0 0.0
2018-May-29 20:42N 01°19' E 104°07'0 0.1
2018-May-29 20:12N 01°19' E 104°07'0 0.0
2018-May-29 19:48N 01°19' E 104°07'0 0.0
2018-May-29 19:15N 01°19' E 104°07'0 0.1
2018-May-29 18:57N 01°19' E 104°07'0 0.0
2018-May-29 17:51N 01°19' E 104°07'0 0.0
2018-May-29 16:39N 01°19' E 104°07'0 0.0
2018-May-29 16:24N 01°19' E 104°07'0 0.4
2018-May-29 15:54N 01°19' E 104°07'0 0.3
2018-May-29 15:27N 01°19' E 104°07'0 0.0
2018-May-29 14:51N 01°19' E 104°07'0 0.0
2018-May-29 14:21N 01°19' E 104°07'0 0.0
2018-May-29 13:57N 01°19' E 104°07'0 0.1
2018-May-29 12:45N 01°19' E 104°07'0 0.0
2018-May-29 12:30N 01°19' E 104°07'0 0.0
2018-May-29 12:00N 01°19' E 104°07'0 0.0
2018-May-29 11:30N 01°19' E 104°07'0 0.1
2018-May-29 09:36N 01°19' E 104°07'0 0.2
2018-May-29 09:06N 01°19' E 104°07'0 0.0
2018-May-29 08:51N 01°19' E 104°07'0 0.0
2018-May-29 08:27N 01°19' E 104°07'0 0.2
2018-May-29 07:42N 01°19' E 104°07'0 0.4
2018-May-29 07:24N 01°19' E 104°07'0 0.1
2018-May-29 06:39N 01°19' E 104°07'0 0.0
2018-May-29 06:21N 01°19' E 104°07'0 0.1
2018-May-29 05:51N 01°19' E 104°07'0 0.1
2018-May-29 04:15N 01°19' E 104°07'0 0.1
2018-May-29 04:00N 01°19' E 104°07'0 0.0
2018-May-29 03:12N 01°19' E 104°07'0 0.0
2018-May-29 03:00N 01°19' E 104°07'0 0.0
2018-May-29 02:24N 01°19' E 104°07'0 0.0
2018-May-29 01:36N 01°19' E 104°07'0 0.1
2018-May-29 01:12N 01°19' E 104°07'0 0.0
2018-May-29 00:54N 01°19' E 104°07'0 0.0
2018-May-29 00:21N 01°19' E 104°07'0 0.1
2018-May-28 22:54N 01°19' E 104°07'0 0.1
2018-May-28 22:18N 01°19' E 104°07'0 0.2
2018-May-28 22:00N 01°19' E 104°07'0 0.0
2018-May-28 21:27N 01°19' E 104°07'0 0.0
2018-May-28 20:57N 01°19' E 104°07'0 0.0
2018-May-28 20:27N 01°19' E 104°07'0 0.1
2018-May-28 19:09N 01°19' E 104°07'0 0.1
2018-May-28 18:48N 01°19' E 104°07'0 0.0
2018-May-28 18:27N 01°19' E 104°07'0 0.1
2018-May-28 17:27N 01°19' E 104°07'0 0.0
2018-May-28 16:51N 01°19' E 104°07'0 0.2
2018-May-28 16:30N 01°19' E 104°07'0 0.3
2018-May-28 16:00N 01°19' E 104°07'0 0.0
2018-May-28 15:24N 01°19' E 104°07'0 0.0
2018-May-28 13:57N 01°19' E 104°07'0 0.0
2018-May-28 13:21N 01°19' E 104°07'0 0.0
2018-May-28 13:00N 01°19' E 104°07'0 0.1
2018-May-28 12:15N 01°19' E 104°07'0 0.0
2018-May-28 11:48N 01°19' E 104°07'0 0.2
2018-May-28 11:27N 01°19' E 104°07'0 0.0
2018-May-28 11:00N 01°19' E 104°07'0 0.1
2018-May-28 10:18N 01°19' E 104°07'0 0.1
2018-May-28 08:12N 01°19' E 104°07'0 0.0
2018-May-28 07:51N 01°19' E 104°07'0 0.1
2018-May-28 05:12N 01°19' E 104°07'0 0.0
2018-May-28 04:57N 01°19' E 104°07'0 0.0
2018-May-28 03:33N 01°19' E 104°07'0 0.3
2018-May-28 03:21N 01°19' E 104°07'0 0.1
2018-May-28 02:54N 01°19' E 104°07'0 0.1
2018-May-28 01:48N 01°19' E 104°07'0 0.0
2018-May-28 01:30N 01°19' E 104°07'0 0.1
2018-May-27 23:48N 01°19' E 104°07'0 0.1
2018-May-27 23:27N 01°19' E 104°07'0 0.1
2018-May-27 22:45N 01°19' E 104°07'0 0.0
2018-May-27 22:30N 01°19' E 104°07'0 0.2
2018-May-27 21:51N 01°19' E 104°07'0 0.0
2018-May-27 20:18N 01°19' E 104°07'0 0.0
2018-May-27 20:00N 01°19' E 104°07'0 0.0
2018-May-27 19:25N 01°19' E 104°07'0 0.0
2018-May-27 18:33N 01°19' E 104°07'0 0.3
2018-May-27 18:18N 01°19' E 104°07'0 0.0
2018-May-27 17:57N 01°19' E 104°07'0 0.0
2018-May-27 17:30N 01°19' E 104°07'0 0.0
2018-May-27 16:59N 01°19' E 104°07'0 0.0
2018-May-27 16:28N 01°19' E 104°07'0 0.3
2018-May-27 16:00N 01°19' E 104°07'0 0.3
2018-May-27 15:22N 01°19' E 104°07'1 1.9
2018-May-27 15:00N 01°19' E 104°06'2 3.8
2018-May-27 14:30N 01°17' E 104°07'2 3.3
2018-May-27 13:57N 01°16' E 104°09'3 6.2
2018-May-27 13:29N 01°16' E 104°06'2 4.4
2018-May-27 12:59N 01°15' E 104°04'3 6.2
2018-May-27 12:29N 01°14' E 104°01'612.1
2018-May-27 12:00N 01°13' E 103°55'510.3
2018-May-27 11:30N 01°11' E 103°51'5 9.2
2018-May-27 11:00N 01°08' E 103°47'510.1
2018-May-27 10:30N 01°05' E 103°43'510.2
2018-May-27 10:00N 01°03' E 103°38'611.5
2018-May-27 09:30N 01°06' E 103°34'611.7
2018-May-27 09:00N 01°12' E 103°31'1 3.0
2018-May-27 08:30N 01°10' E 103°31'1 1.0
2018-May-27 07:58N 01°11' E 103°32'2 3.7
2018-May-27 07:29N 01°12' E 103°33'2 4.2
2018-May-27 07:00N 01°14' E 103°33'0 0.0
2018-May-27 06:25N 01°14' E 103°33'0 0.0
2018-May-27 05:59N 01°14' E 103°33'0 0.1
2018-May-27 05:20N 01°14' E 103°33'0 0.4
2018-May-27 04:59N 01°14' E 103°33'0 0.2
2018-May-27 04:23N 01°14' E 103°34'0 0.0
2018-May-27 03:56N 01°14' E 103°34'0 0.1
2018-May-27 03:29N 01°14' E 103°34'0 0.2
2018-May-27 02:53N 01°14' E 103°34'0 0.2
2018-May-27 02:23N 01°14' E 103°34'0 0.1
2018-May-27 00:20N 01°14' E 103°33'0 0.2
2018-May-26 23:59N 01°14' E 103°33'0 0.2
2018-May-26 23:17N 01°14' E 103°33'0 0.0
2018-May-26 22:50N 01°14' E 103°33'0 0.0
2018-May-26 22:26N 01°14' E 103°33'0 0.1
2018-May-26 21:58N 01°14' E 103°33'0 0.1
2018-May-26 21:05N 01°14' E 103°33'0 0.1
2018-May-26 20:56N 01°14' E 103°33'0 0.0
2018-May-26 19:53N 01°14' E 103°33'0 0.1
2018-May-26 19:17N 01°14' E 103°33'0 0.1
2018-May-26 18:35N 01°14' E 103°33'0 0.2
2018-May-26 18:26N 01°14' E 103°33'0 0.2
2018-May-26 17:55N 01°14' E 103°33'0 0.1
2018-May-26 17:17N 01°14' E 103°34'0 0.2
2018-May-26 16:59N 01°14' E 103°34'0 0.0
2018-May-26 16:26N 01°14' E 103°34'0 0.0
2018-May-26 15:56N 01°14' E 103°34'0 0.1
2018-May-26 14:34N 01°14' E 103°34'0 0.0
2018-May-26 14:29N 01°14' E 103°34'0 0.1
2018-May-26 13:56N 01°14' E 103°34'0 0.0
2018-May-26 13:23N 01°14' E 103°34'0 0.2
2018-May-26 12:59N 01°14' E 103°34'0 0.1
2018-May-26 11:47N 01°14' E 103°34'0 0.2
2018-May-26 11:29N 01°14' E 103°33'0 0.1
2018-May-26 10:59N 01°14' E 103°33'0 0.1
2018-May-26 10:29N 01°14' E 103°33'0 0.1
2018-May-26 09:44N 01°14' E 103°33'0 0.0
2018-May-26 09:29N 01°14' E 103°33'0 0.1
2018-May-26 08:59N 01°14' E 103°33'0 0.1
2018-May-26 07:59N 01°14' E 103°33'0 0.1
2018-May-26 07:26N 01°14' E 103°33'0 0.1
2018-May-26 06:56N 01°14' E 103°33'0 0.0
2018-May-26 04:32N 01°14' E 103°33'0 0.3
2018-May-26 04:19N 01°14' E 103°33'0 0.2
2018-May-26 03:59N 01°14' E 103°33'0 0.0
2018-May-26 03:23N 01°14' E 103°33'0 0.0
2018-May-26 02:20N 01°14' E 103°33'0 0.0
2018-May-26 01:40N 01°14' E 103°33'0 0.1
2018-May-26 01:11N 01°14' E 103°33'0 0.1
2018-May-26 00:59N 01°14' E 103°33'0 0.0
2018-May-26 00:20N 01°14' E 103°33'0 0.0
2018-May-25 23:59N 01°14' E 103°33'0 0.1
2018-May-25 23:02N 01°14' E 103°33'0 0.0
2018-May-25 22:41N 01°14' E 103°33'0 0.1
2018-May-25 22:11N 01°14' E 103°33'0 0.1
2018-May-25 21:32N 01°14' E 103°33'0 0.0
2018-May-25 21:29N 01°14' E 103°33'0 0.0
2018-May-25 19:35N 01°14' E 103°33'0 0.0
2018-May-25 19:07N 01°14' E 103°33'0 0.1
2018-May-25 18:56N 01°14' E 103°33'0 0.0
2018-May-25 18:05N 01°14' E 103°33'0 0.0
2018-May-25 17:53N 01°14' E 103°33'0 0.0
2018-May-25 17:26N 01°14' E 103°33'0 0.0
2018-May-25 16:56N 01°14' E 103°33'0 0.0
2018-May-25 15:53N 01°14' E 103°33'0 0.0
2018-May-25 15:26N 01°14' E 103°33'0 0.0
2018-May-25 14:53N 01°14' E 103°33'0 0.1
2018-May-25 14:11N 01°14' E 103°33'0 0.1
2018-May-25 13:58N 01°14' E 103°33'0 0.0
2018-May-25 12:32N 01°14' E 103°33'0 0.2
2018-May-25 12:11N 01°14' E 103°33'0 0.1
2018-May-25 11:41N 01°14' E 103°33'0 0.1
2018-May-25 11:29N 01°14' E 103°33'0 0.1
2018-May-25 10:59N 01°14' E 103°33'0 0.0
2018-May-25 09:38N 01°14' E 103°33'0 0.2
2018-May-25 09:26N 01°14' E 103°33'0 0.0
2018-May-25 08:35N 01°14' E 103°33'0 0.0
2018-May-25 08:29N 01°14' E 103°33'0 0.0
2018-May-25 07:56N 01°14' E 103°33'0 0.2
2018-May-25 07:26N 01°14' E 103°33'0 0.1
2018-May-25 06:59N 01°14' E 103°33'0 0.1
2018-May-25 06:30N 01°14' E 103°33'1 2.5
2018-May-25 06:00N 01°15' E 103°32'3 7.0
2018-May-25 05:30N 01°12' E 103°31'2 3.4
2018-May-25 04:59N 01°11' E 103°29'1 2.1
2018-May-25 04:30N 01°11' E 103°28'0 0.8
2018-May-25 03:58N 01°11' E 103°28'1 1.8
2018-May-25 03:28N 01°12' E 103°27'2 4.2
2018-May-25 02:58N 01°13' E 103°25'5 9.9
2018-May-25 02:28N 01°15' E 103°21'611.0
2018-May-25 01:55N 01°19' E 103°16'811.2
2018-May-25 01:14N 01°24' E 103°10'411.7
2018-May-25 00:56N 01°25' E 103°07'711.6
2018-May-25 00:20N 01°29' E 103°01'  

Dump ship's entire track history